Details From ZJHK - Meilan
To VTSP - Phuket Intl
Flight Number -
Tags Generated
Created
Modified
Stats Distance 1,001 nm / 1,854 km
Max Altitude 0 ft / 0 m
Waypoints 3
Social Downloads 2
Likes 0
Share VATSIM

Download

Looking for another format? Having issues loading an existing format? Contact us
Advertisement - Login to hide

Notes

Generated

Route

ZJHK PUT VTSP

ID Type Via Altitude (ft/m) Position (lat/lon) Dist (leg/tot) Name
O ZJHK APT - 0 / 0 19.93477 / 110.43803 - / 0 nm
PUT VOR - 0 / 0 8.11523 / 98.30630 1000 / 1000 nm PHUKET VOR-DME
O VTSP APT - 0 / 0 8.11189 / 98.30327 0 / 1000 nm

Altitude Profile

Advertisement - Login to hide

Weather


0- 5 10 15 20 25 30 35+ Temperature / °C

Clouds and Precipitation
Forecast for 2018-10-20 06:00 UTC. Updated 3 hours ago

Ground ~20,000 ft ~40,000 ft Winds

ZJHK

Details ICAO ZJHK (HAK)
Name Haikou Meilan Int'l
Region China
Timezone Asia/Chongqing (UTC+8.0)
Stats Elevation 75 ft / 23 m (AMSL)
Location 19.934800° 110.455000°
Runways 1
Magnetic Variation 1.982° W

METAR

ZJHK 200600Z 11005MPS 9999 FEW010 SCT023 27/24 Q1014 NOSIG

Decode

TAF

Not found

Departure Runways

ID Width Length Bearing (true/mag) Surface Threshold Overrun Markings Lighting
09 148 ft / 45 m 11,822 ft / 3,603 m 89.76° / 91.75° CONCRETE 0 ft / 0 m 200 ft / 61 m PREC-APP CENTERLINE EDGE THRESHOLD ALSF-II TDZ
27 148 ft / 45 m 11,822 ft / 3,603 m 269.78° / 271.76° CONCRETE 0 ft / 0 m 200 ft / 61 m PREC-APP CENTERLINE EDGE THRESHOLD ALSF-II TDZ

VTSP

Details ICAO VTSP (HKT)
Name Phuket Intl
Region Thailand
Timezone Asia/Bangkok (UTC+7.0)
Stats Elevation 82 ft / 25 m (AMSL)
Location 8.113220° 98.316800°
Runways 1
Magnetic Variation 0.414° W

METAR

VTSP 200600Z VRB02KT 8000 3000NE -TSRA FEW016CB SCT018 BKN100 26/24 Q1011 NOSIG

Decode

TAF

TAF AMD VTSP 200500Z 2006/2112 26006KT 9000 SCT018 BKN100 TEMPO 2006/2010 VRB10G20KT 5000 TSRA FEW018CB SCT020 BKN100 BECMG 2010/2012 VRB02KT 8000 TEMPO 2014/2020 VRB10G20KT 5000 TSRA FEW018CB SCT020 BKN100 BECMG 2100/2002 26008KT 9999

Decode

Destination Runways

ID Width Length Bearing (true/mag) Surface Threshold Overrun Markings Lighting
09 148 ft / 45 m 9,838 ft / 2,999 m 84.57° / 84.98° ASPHALT 0 ft / 0 m 197 ft / 60 m PREC-APP EDGE THRESHOLD REIL-OMNI
27 148 ft / 45 m 9,838 ft / 2,999 m 264.57° / 264.98° ASPHALT 0 ft / 0 m 190 ft / 58 m PREC-APP EDGE THRESHOLD MALS

Approach Navaids

Runway Type Ident Frequency Range Bearing (true/mag) Slope Elevation
27 GS IPKT 109.90 MHz 10 nm / 19 km 263.91° / 264.32 ° 3.20° 82 ft / 25 m (AMSL)
27 DME IPKT 109.90 MHz 18 nm / 33 km - - 82 ft / 25 m (AMSL)
27 LOC-ILS IPKT 109.90 MHz 18 nm / 33 km 263.45° / 263.87 ° - 19 ft / 6 m (AMSL)
27 MM MM - - 263.45° / 263.87 ° - 82 ft / 25 m (AMSL)